Terminal Aerodrome Forecast
Issued by NWS

Home | Current Version | Previous Version | Text Only | Print | Product List | Glossary On
Versions: 1 2 3 4 5 6 7 8 9 10 11 12 13
000
FTUS46 KPDT 191120
TAFRDM
TAF
KRDM 191120Z 1912/2012 VRB05KT P6SM SKC
     FM192000 34011G19KT 6SM FU HZ FEW100
     FM200300 31006KT 6SM FU HZ FEW100
     FM200900 17004KT P6SM SKC=

USA.gov is the U.S. government's official web portal to all federal, state and local government web resources and services.